createdAt,value
2022-08-12T00:01:02.785Z,78.50
2022-08-12T00:03:48.530Z,78.90
2022-08-12T00:06:33.651Z,79.20
2022-08-12T00:09:23.156Z,79.70
2022-08-12T00:12:11.639Z,79.80
2022-08-12T00:14:57.044Z,79.50
2022-08-12T00:17:42.505Z,80.10
2022-08-12T00:20:29.758Z,80.00
2022-08-12T00:23:15.693Z,80.40
2022-08-12T00:26:23.155Z,80.50
2022-08-12T00:29:09.722Z,80.60
2022-08-12T00:31:55.142Z,80.80
2022-08-12T00:34:40.472Z,81.00
2022-08-12T00:37:25.842Z,81.10
2022-08-12T00:40:13.673Z,81.40
2022-08-12T00:42:41.786Z,81.80
2022-08-12T00:45:10.257Z,81.60
2022-08-12T00:47:37.185Z,82.00
2022-08-12T00:50:04.187Z,82.00
2022-08-12T00:52:31.031Z,82.30
2022-08-12T00:54:59.146Z,83.40
2022-08-12T00:57:35.777Z,83.20
2022-08-12T01:00:06.098Z,83.80
2022-08-12T01:02:41.458Z,84.10
2022-08-12T01:05:31.943Z,84.30
2022-08-12T01:08:17.904Z,85.00
2022-08-12T01:11:04.008Z,84.20
2022-08-12T01:13:32.385Z,84.40
2022-08-12T01:16:01.286Z,84.80
2022-08-12T01:18:30.134Z,84.70
2022-08-12T01:21:11.926Z,84.90
2022-08-12T01:24:30.254Z,85.50
2022-08-12T01:26:51.998Z,87.00
2022-08-12T01:29:20.841Z,85.00
2022-08-12T01:31:48.666Z,85.40
2022-08-12T01:34:33.397Z,85.80
2022-08-12T01:37:04.600Z,85.90
2022-08-12T01:39:33.178Z,86.40
2022-08-12T01:42:09.791Z,86.30
2022-08-12T01:44:36.835Z,87.10
2022-08-12T01:47:15.303Z,86.70
2022-08-12T01:50:08.075Z,87.10
2022-08-12T01:53:01.985Z,89.90
2022-08-12T01:55:32.458Z,89.60
2022-08-12T01:58:32.043Z,87.00
2022-08-12T02:01:08.704Z,88.90
2022-08-12T02:04:03.221Z,88.20
2022-08-12T02:06:54.671Z,87.90
2022-08-12T02:09:44.447Z,87.70
2022-08-12T02:12:31.260Z,86.80
2022-08-12T02:15:13.004Z,87.10
2022-08-12T02:17:57.064Z,86.60
2022-08-12T02:20:35.425Z,88.60
2022-08-12T02:23:23.261Z,87.70
2022-08-12T02:25:50.260Z,87.70
2022-08-12T02:28:17.067Z,88.10
2022-08-12T02:30:44.082Z,88.10
2022-08-12T02:33:11.137Z,88.40
2022-08-12T02:35:39.421Z,88.90
2022-08-12T02:38:08.943Z,88.50
2022-08-12T02:40:37.989Z,88.60
2022-08-12T02:43:14.929Z,88.20
2022-08-12T02:46:08.280Z,88.20
2022-08-12T02:49:01.046Z,89.50
2022-08-12T02:51:33.750Z,88.40
2022-08-12T02:54:05.333Z,88.60
2022-08-12T02:56:33.734Z,88.50
2022-08-12T02:59:00.870Z,88.50
2022-08-12T03:01:35.272Z,88.40
2022-08-12T03:04:04.562Z,88.70
2022-08-12T03:06:38.495Z,88.60
2022-08-12T03:09:05.491Z,89.00
2022-08-12T03:11:48.983Z,88.70
2022-08-12T03:14:18.082Z,89.60
2022-08-12T03:16:50.133Z,88.90
2022-08-12T03:19:20.838Z,88.80
2022-08-12T03:21:53.085Z,89.00
2022-08-12T03:24:34.902Z,88.50
2022-08-12T03:27:02.545Z,88.80
2022-08-12T03:29:30.280Z,88.90
2022-08-12T03:32:00.645Z,88.30
2022-08-12T03:34:29.843Z,89.30
2022-08-12T03:36:56.882Z,88.40
2022-08-12T03:39:55.865Z,88.40
2022-08-12T03:42:33.056Z,88.00
2022-08-12T03:45:52.305Z,88.50
2022-08-12T03:48:38.743Z,89.00
2022-08-12T03:51:24.263Z,87.60
2022-08-12T03:54:11.345Z,87.80
2022-08-12T03:56:57.238Z,88.00
2022-08-12T03:59:42.541Z,87.90
2022-08-12T04:02:15.674Z,88.10
2022-08-12T04:04:45.424Z,88.70
2022-08-12T04:07:13.329Z,88.80
2022-08-12T04:09:41.715Z,88.30
2022-08-12T04:12:32.344Z,88.80
2022-08-12T04:15:00.377Z,89.00
2022-08-12T04:17:28.184Z,89.10
2022-08-12T04:19:58.393Z,88.80
2022-08-12T04:22:29.431Z,89.30
2022-08-12T04:25:02.950Z,89.50
2022-08-12T04:27:31.684Z,89.20
2022-08-12T04:30:29.476Z,89.10
2022-08-12T04:32:48.247Z,89.50
2022-08-12T04:35:15.255Z,89.60
2022-08-12T04:37:58.094Z,89.50
2022-08-12T04:40:30.083Z,89.70
2022-08-12T04:42:57.660Z,89.70
2022-08-12T04:45:25.024Z,90.30
2022-08-12T04:47:51.858Z,90.60
2022-08-12T04:50:35.170Z,90.40
2022-08-12T04:53:08.390Z,90.20
2022-08-12T04:55:36.908Z,90.30
2022-08-12T04:58:03.744Z,90.10
2022-08-12T05:00:30.720Z,90.20
2022-08-12T05:02:57.739Z,90.10
2022-08-12T05:05:24.766Z,90.10
2022-08-12T05:07:54.262Z,90.00
2022-08-12T05:10:33.978Z,89.80
2022-08-12T05:13:05.207Z,90.10
2022-08-12T05:15:31.990Z,90.40
2022-08-12T05:18:00.228Z,90.40
2022-08-12T05:20:29.477Z,90.30
2022-08-12T05:23:17.450Z,90.20
2022-08-12T05:25:45.544Z,91.00
2022-08-12T05:28:13.295Z,90.30
2022-08-12T05:30:41.377Z,90.60
2022-08-12T05:33:08.327Z,90.60
2022-08-12T05:35:40.137Z,90.40
2022-08-12T05:38:30.894Z,90.50
2022-08-12T05:40:58.021Z,90.50
2022-08-12T05:43:24.898Z,90.40
2022-08-12T05:45:51.872Z,90.70
2022-08-12T05:48:18.910Z,90.40
2022-08-12T05:50:45.903Z,90.50
2022-08-12T05:53:13.240Z,90.40
2022-08-12T05:55:40.596Z,90.30
2022-08-12T05:58:08.189Z,90.20
2022-08-12T06:00:35.206Z,90.20
2022-08-12T06:03:03.570Z,90.20
2022-08-12T06:05:52.766Z,90.10
2022-08-12T06:08:22.052Z,90.40
2022-08-12T06:10:51.696Z,90.00
2022-08-12T06:13:28.302Z,89.90
2022-08-12T06:16:09.802Z,89.80
2022-08-12T06:18:39.949Z,90.00
2022-08-12T06:21:14.811Z,89.70
2022-08-12T06:23:42.809Z,90.20
2022-08-12T06:26:12.690Z,89.40
2022-08-12T06:28:39.677Z,89.50
2022-08-12T06:34:00.504Z,89.70
2022-08-12T06:36:42.951Z,89.60
2022-08-12T06:39:14.858Z,89.30
2022-08-12T06:42:04.941Z,89.20
2022-08-12T06:44:47.594Z,89.40
2022-08-12T06:47:16.799Z,88.70
2022-08-12T06:49:44.501Z,88.60
2022-08-12T06:52:11.531Z,88.60
2022-08-12T06:54:38.336Z,88.50
2022-08-12T06:58:05.862Z,88.30
2022-08-12T06:59:52.323Z,88.20
2022-08-12T07:02:20.589Z,88.30
2022-08-12T07:04:48.112Z,88.40
2022-08-12T07:07:15.214Z,88.20
2022-08-12T07:10:03.904Z,88.10
2022-08-12T07:12:32.420Z,88.10
2022-08-12T07:14:59.428Z,88.20
2022-08-12T07:17:35.794Z,88.40
2022-08-12T07:20:10.038Z,88.80
2022-08-12T07:22:37.533Z,89.40
2022-08-12T07:25:23.058Z,89.60
2022-08-12T07:27:53.793Z,90.30
2022-08-12T07:30:20.910Z,90.20
2022-08-12T07:32:51.299Z,89.70
2022-08-12T07:35:20.225Z,89.90
2022-08-12T07:37:47.368Z,90.50
2022-08-12T07:40:14.500Z,90.30
2022-08-12T07:42:41.766Z,90.20
2022-08-12T07:45:09.574Z,90.50
2022-08-12T07:47:37.859Z,90.40
2022-08-12T07:50:09.131Z,90.30
2022-08-12T07:52:37.301Z,90.20
2022-08-12T07:55:04.750Z,90.80
2022-08-12T07:57:34.464Z,90.50
2022-08-12T08:00:06.114Z,90.40
2022-08-12T08:02:37.659Z,90.20
2022-08-12T08:05:05.146Z,89.90
2022-08-12T08:07:31.994Z,89.70
2022-08-12T08:09:59.876Z,89.60
2022-08-12T08:12:48.469Z,89.40
2022-08-12T08:15:15.899Z,89.40
2022-08-12T08:18:04.176Z,88.80
2022-08-12T08:20:33.787Z,88.60
2022-08-12T08:23:07.142Z,88.00
2022-08-12T08:25:36.591Z,87.50
2022-08-12T08:28:09.466Z,87.10
2022-08-12T08:30:38.248Z,86.90
2022-08-12T08:33:22.540Z,86.20
2022-08-12T08:35:54.316Z,86.50
2022-08-12T08:38:32.157Z,86.10
2022-08-12T08:42:14.156Z,85.60
2022-08-12T08:44:06.074Z,85.00
2022-08-12T08:46:37.736Z,84.70
2022-08-12T08:49:05.573Z,84.30
2022-08-12T08:51:32.593Z,83.60
2022-08-12T08:53:59.564Z,83.40
2022-08-12T08:56:29.054Z,82.80
2022-08-12T08:58:57.485Z,83.10
2022-08-12T09:01:24.951Z,83.10
2022-08-12T09:05:09.366Z,82.50
2022-08-12T09:06:39.682Z,81.60
2022-08-12T09:12:27.527Z,82.00
2022-08-12T09:14:54.799Z,81.00
2022-08-12T09:17:22.495Z,81.60
2022-08-12T09:22:37.712Z,80.30
2022-08-12T09:25:07.172Z,79.60
2022-08-12T09:28:04.245Z,80.40
2022-08-12T09:30:41.348Z,79.80
2022-08-12T09:33:19.446Z,79.30
2022-08-12T09:36:03.042Z,79.60
2022-08-12T09:38:32.273Z,78.90
2022-08-12T09:42:07.842Z,77.90
2022-08-12T09:44:05.778Z,77.10
2022-08-12T09:46:34.639Z,76.50
2022-08-12T09:49:04.144Z,76.00
2022-08-12T09:51:43.410Z,74.50
2022-08-12T09:54:33.326Z,75.00
2022-08-12T09:58:07.368Z,75.00
2022-08-12T10:00:16.138Z,73.70
2022-08-12T10:03:32.117Z,73.80
2022-08-12T10:06:20.045Z,70.90
2022-08-12T10:08:44.929Z,73.60
2022-08-12T10:12:07.778Z,70.20
2022-08-12T10:14:34.139Z,68.80
2022-08-12T10:17:02.081Z,69.80
2022-08-12T10:19:36.837Z,70.90
2022-08-12T10:22:16.863Z,69.80
2022-08-12T10:25:17.456Z,68.30
2022-08-12T10:28:07.045Z,65.60
2022-08-12T10:30:40.494Z,65.00
2022-08-12T10:33:18.370Z,66.30
2022-08-12T10:35:46.325Z,65.70
2022-08-12T10:38:35.507Z,64.60
2022-08-12T10:41:23.108Z,64.30
2022-08-12T10:44:12.569Z,64.90
2022-08-12T10:46:49.279Z,62.30
2022-08-12T10:50:03.555Z,62.00
2022-08-12T10:52:34.701Z,63.30
2022-08-12T10:54:52.536Z,61.40
2022-08-12T10:58:12.544Z,60.90
2022-08-12T11:00:31.746Z,62.60
2022-08-12T11:04:28.239Z,61.00
2022-08-12T11:07:03.422Z,61.60
2022-08-12T11:08:37.806Z,59.40
2022-08-12T11:11:09.814Z,59.40
2022-08-12T11:13:46.560Z,60.40
2022-08-12T11:16:21.921Z,60.60
2022-08-12T11:18:55.355Z,59.30
2022-08-12T11:21:56.570Z,58.70
2022-08-12T11:24:30.964Z,57.70
2022-08-12T11:30:02.119Z,54.80
2022-08-12T11:32:16.996Z,54.00
2022-08-12T11:34:52.476Z,55.50
2022-08-12T11:37:25.863Z,54.50
2022-08-12T11:42:39.663Z,54.70
2022-08-12T11:45:13.099Z,51.00
2022-08-12T11:47:43.601Z,53.20
2022-08-12T11:50:11.581Z,53.60
2022-08-12T11:52:55.382Z,49.50
2022-08-12T11:55:24.960Z,50.70
2022-08-12T11:58:33.933Z,48.60
2022-08-12T12:03:44.247Z,51.00
2022-08-12T12:06:17.251Z,49.10
2022-08-12T12:08:50.399Z,47.60
2022-08-12T12:11:18.982Z,49.10
2022-08-12T12:14:08.202Z,48.50
2022-08-12T12:16:33.737Z,47.00
2022-08-12T12:19:05.552Z,47.00
2022-08-12T12:21:48.308Z,48.30
2022-08-12T12:24:21.669Z,48.20
2022-08-12T12:27:00.442Z,46.70
2022-08-12T12:30:17.819Z,45.20
2022-08-12T12:32:18.914Z,45.00
2022-08-12T12:35:13.741Z,46.80
2022-08-12T12:38:03.843Z,44.80
2022-08-12T12:40:30.106Z,44.50
2022-08-12T12:43:01.809Z,46.10
2022-08-12T12:45:33.402Z,45.00
2022-08-12T12:48:08.169Z,44.90
2022-08-12T12:50:51.188Z,44.80
2022-08-12T12:54:06.263Z,44.70
2022-08-12T12:56:21.062Z,43.70
2022-08-12T12:59:03.757Z,44.70
2022-08-12T13:01:36.327Z,46.70
2022-08-12T13:04:08.203Z,44.30
2022-08-12T13:06:39.596Z,45.20
2022-08-12T13:09:09.087Z,44.50
2022-08-12T13:11:42.129Z,44.70
2022-08-12T13:14:28.070Z,45.90
2022-08-12T13:17:02.807Z,44.50
2022-08-12T13:19:37.896Z,42.70
2022-08-12T13:22:18.195Z,44.80
2022-08-12T13:24:52.181Z,43.50
2022-08-12T13:27:34.510Z,44.30
2022-08-12T13:30:06.589Z,43.00
2022-08-12T13:32:34.091Z,43.00
2022-08-12T13:35:04.665Z,41.40
2022-08-12T13:37:54.766Z,42.90
2022-08-12T13:40:26.628Z,41.50
2022-08-12T13:42:57.507Z,41.20
2022-08-12T13:45:29.111Z,41.30
2022-08-12T13:48:06.272Z,41.80
2022-08-12T13:50:36.531Z,41.10
2022-08-12T13:53:24.461Z,42.10
2022-08-12T13:55:59.783Z,41.60
2022-08-12T13:58:30.105Z,40.10
2022-08-12T14:00:57.987Z,41.00
2022-08-12T14:03:28.629Z,41.00
2022-08-12T14:06:15.382Z,41.50
2022-08-12T14:08:43.153Z,40.20
2022-08-12T14:11:12.598Z,40.30
2022-08-12T14:14:04.803Z,40.10
2022-08-12T14:16:38.005Z,39.30
2022-08-12T14:19:22.889Z,38.30
2022-08-12T14:22:00.792Z,39.70
2022-08-12T14:24:35.391Z,39.40
2022-08-12T14:27:09.211Z,40.80
2022-08-12T14:30:04.088Z,40.20
2022-08-12T14:32:34.596Z,40.70
2022-08-12T14:35:03.930Z,38.30
2022-08-12T14:37:55.526Z,39.10
2022-08-12T14:40:18.366Z,40.50
2022-08-12T14:42:47.007Z,39.60
2022-08-12T14:45:14.183Z,39.30
2022-08-12T14:47:53.720Z,39.30
2022-08-12T14:50:58.871Z,37.90
2022-08-12T14:54:52.883Z,38.80
2022-08-12T14:59:20.386Z,39.40
2022-08-12T15:01:47.639Z,39.10
2022-08-12T15:04:15.329Z,39.40
2022-08-12T15:06:52.579Z,37.70
2022-08-12T15:09:29.316Z,38.70
2022-08-12T15:12:03.245Z,38.50
2022-08-12T15:14:31.791Z,38.70
2022-08-12T15:17:00.317Z,38.50
2022-08-12T15:20:30.824Z,38.20
2022-08-12T15:22:39.415Z,38.30
2022-08-12T15:25:07.043Z,38.20
2022-08-12T15:28:04.219Z,38.30
2022-08-12T15:30:32.375Z,39.20
2022-08-12T15:33:00.682Z,39.00
2022-08-12T15:35:50.194Z,38.90
2022-08-12T15:38:20.879Z,39.20
2022-08-12T15:40:49.800Z,38.70
2022-08-12T15:43:51.020Z,39.00
2022-08-12T15:46:04.750Z,39.20
2022-08-12T15:48:32.732Z,38.60
2022-08-12T15:51:00.400Z,39.70
2022-08-12T15:53:46.066Z,39.30
2022-08-12T15:56:22.147Z,39.00
2022-08-12T15:58:58.840Z,40.00
2022-08-12T16:01:35.022Z,39.60
2022-08-12T16:04:02.810Z,39.00
2022-08-12T16:07:00.804Z,39.20
2022-08-12T16:09:22.282Z,39.30
2022-08-12T16:12:12.088Z,38.70
2022-08-12T16:14:39.357Z,38.40
2022-08-12T16:17:09.048Z,39.30
2022-08-12T16:20:03.687Z,39.20
2022-08-12T16:22:29.355Z,39.70
2022-08-12T16:24:57.102Z,40.00
2022-08-12T16:27:25.563Z,39.40
2022-08-12T16:29:57.287Z,39.60
2022-08-12T16:32:31.194Z,39.30
2022-08-12T16:34:59.070Z,36.90
2022-08-12T16:37:32.359Z,38.70
2022-08-12T16:40:04.909Z,39.00
2022-08-12T16:42:34.100Z,38.50
2022-08-12T16:45:01.893Z,38.80
2022-08-12T16:47:38.928Z,38.70
2022-08-12T16:50:19.408Z,38.20
2022-08-12T16:52:49.946Z,38.80
2022-08-12T16:55:17.038Z,37.80
2022-08-12T16:57:48.594Z,38.20
2022-08-12T17:00:17.157Z,38.40
2022-08-12T17:02:50.664Z,37.20
2022-08-12T17:05:31.291Z,37.40
2022-08-12T17:07:59.813Z,36.90
2022-08-12T17:10:36.060Z,38.50
2022-08-12T17:13:09.847Z,38.40
2022-08-12T17:15:57.307Z,37.40
2022-08-12T17:18:44.043Z,37.60
2022-08-12T17:21:12.013Z,35.50
2022-08-12T17:23:48.382Z,37.60
2022-08-12T17:26:28.321Z,36.00
2022-08-12T17:29:00.550Z,37.50
2022-08-12T17:32:01.413Z,37.20
2022-08-12T17:34:34.270Z,36.90
2022-08-12T17:37:02.803Z,35.60
2022-08-12T17:40:14.849Z,36.30
2022-08-12T17:42:32.875Z,34.00
2022-08-12T17:45:17.909Z,35.70
2022-08-12T17:48:04.931Z,35.60
2022-08-12T17:50:36.847Z,35.70
2022-08-12T17:53:05.438Z,35.00
2022-08-12T17:55:43.575Z,35.70
2022-08-12T17:58:12.999Z,35.90
2022-08-12T18:00:43.419Z,35.10
2022-08-12T18:03:10.664Z,35.30
2022-08-12T18:05:55.505Z,36.30
2022-08-12T18:08:29.464Z,36.50
2022-08-12T18:11:38.342Z,37.10
2022-08-12T18:14:09.243Z,36.90
2022-08-12T18:16:41.566Z,37.70
2022-08-12T18:19:09.030Z,37.80
2022-08-12T18:22:02.648Z,38.00
2022-08-12T18:24:29.254Z,38.60
2022-08-12T18:26:56.512Z,39.00
2022-08-12T18:29:23.910Z,39.20
2022-08-12T18:32:18.025Z,39.80
2022-08-12T18:34:56.165Z,40.00
2022-08-12T18:37:41.506Z,40.70
2022-08-12T18:40:28.837Z,40.70
2022-08-12T18:42:57.139Z,41.10
2022-08-12T18:45:46.501Z,41.30
2022-08-12T18:48:14.907Z,41.80
2022-08-12T18:50:49.021Z,41.90
2022-08-12T18:54:05.446Z,42.40
2022-08-12T18:56:07.246Z,42.50
2022-08-12T18:59:00.049Z,42.80
2022-08-12T19:02:18.940Z,43.10
2022-08-12T19:04:15.682Z,43.30
2022-08-12T19:06:46.563Z,44.00
2022-08-12T19:09:14.738Z,44.20
2022-08-12T19:12:00.669Z,44.60
2022-08-12T19:14:32.671Z,44.70
2022-08-12T19:17:04.996Z,45.60
2022-08-12T19:19:37.450Z,46.00
2022-08-12T19:22:08.931Z,46.40
2022-08-12T19:24:54.405Z,46.50
2022-08-12T19:27:22.161Z,46.70
2022-08-12T19:30:06.174Z,47.10
2022-08-12T19:32:35.305Z,48.20
2022-08-12T19:38:03.990Z,48.60
2022-08-12T19:40:34.835Z,48.40
2022-08-12T19:43:19.470Z,48.90
2022-08-12T19:45:53.138Z,50.50
2022-08-12T19:48:21.973Z,50.60
2022-08-12T19:50:52.416Z,50.00
2022-08-12T19:53:23.868Z,51.20
2022-08-12T19:55:52.736Z,50.40
2022-08-12T19:58:20.299Z,50.50
2022-08-12T20:00:52.589Z,50.70
2022-08-12T20:03:38.997Z,51.20
2022-08-12T20:06:13.696Z,51.50
2022-08-12T20:08:48.924Z,52.90
2022-08-12T20:12:10.182Z,53.30
2022-08-12T20:14:09.643Z,53.20
2022-08-12T20:16:57.638Z,53.40
2022-08-12T20:19:28.557Z,54.20
2022-08-12T20:22:14.862Z,54.10
2022-08-12T20:24:55.269Z,54.50
2022-08-12T20:28:02.749Z,54.70
2022-08-12T20:30:20.624Z,55.00
2022-08-12T20:33:05.215Z,55.70
2022-08-12T20:36:06.989Z,56.20
2022-08-12T20:38:27.061Z,56.90
2022-08-12T20:40:55.687Z,56.70
2022-08-12T20:43:23.936Z,57.40
2022-08-12T20:45:57.907Z,57.80
2022-08-12T20:48:28.737Z,58.00
2022-08-12T20:51:03.922Z,58.40
2022-08-12T20:53:54.048Z,60.30
2022-08-12T20:56:31.206Z,59.80
2022-08-12T20:59:01.066Z,62.00
2022-08-12T21:01:36.654Z,62.10
2022-08-12T21:04:33.164Z,62.40
2022-08-12T21:07:08.318Z,63.40
2022-08-12T21:09:45.492Z,64.50
2022-08-12T21:12:28.552Z,66.80
2022-08-12T21:15:23.167Z,65.70
2022-08-12T21:18:09.698Z,70.20
2022-08-12T21:20:50.087Z,68.90
2022-08-12T21:23:19.180Z,67.00
2022-08-12T21:25:48.114Z,67.50
2022-08-12T21:28:17.242Z,68.00
2022-08-12T21:31:11.282Z,68.20
2022-08-12T21:33:32.065Z,70.10
2022-08-12T21:36:22.873Z,69.40
2022-08-12T21:39:01.997Z,69.90
2022-08-12T21:41:50.177Z,71.20
2022-08-12T21:44:32.483Z,70.60
2022-08-12T21:47:20.813Z,71.50
2022-08-12T21:50:02.816Z,71.90
2022-08-12T21:52:35.833Z,71.50
2022-08-12T21:55:08.372Z,72.30
2022-08-12T21:57:53.951Z,73.50
2022-08-12T22:00:33.479Z,72.40
2022-08-12T22:04:02.961Z,73.50
2022-08-12T22:06:25.911Z,76.30
2022-08-12T22:09:02.244Z,73.30
2022-08-12T22:11:41.565Z,77.90
2022-08-12T22:14:21.869Z,73.50
2022-08-12T22:16:51.870Z,74.00
2022-08-12T22:19:22.934Z,74.40
2022-08-12T22:21:52.302Z,74.70
2022-08-12T22:24:26.275Z,74.90
2022-08-12T22:27:18.167Z,75.20
2022-08-12T22:30:05.518Z,75.10
2022-08-12T22:32:34.206Z,75.40
2022-08-12T22:35:22.326Z,75.40
2022-08-12T22:37:53.427Z,75.70
2022-08-12T22:40:22.900Z,75.90
2022-08-12T22:43:15.618Z,76.30
2022-08-12T22:46:01.839Z,76.50
2022-08-12T22:48:28.938Z,76.60
2022-08-12T22:50:59.077Z,77.70
2022-08-12T22:53:35.762Z,77.00
2022-08-12T22:56:06.339Z,77.80
2022-08-12T22:58:36.671Z,77.90
2022-08-12T23:01:07.859Z,78.40
2022-08-12T23:03:48.238Z,78.30
2022-08-12T23:06:21.908Z,78.70
2022-08-12T23:08:49.772Z,79.40
2022-08-12T23:11:17.945Z,78.80
2022-08-12T23:14:00.639Z,79.10
2022-08-12T23:16:31.522Z,80.00
2022-08-12T23:19:09.803Z,80.00
2022-08-12T23:22:03.997Z,81.30
2022-08-12T23:24:53.808Z,81.00
2022-08-12T23:27:44.277Z,81.10
2022-08-12T23:30:24.608Z,85.50
2022-08-12T23:32:54.482Z,81.30
2022-08-12T23:35:45.711Z,81.90
2022-08-12T23:38:30.235Z,81.90
2022-08-12T23:40:58.177Z,82.10
2022-08-12T23:43:25.520Z,82.40
2022-08-12T23:46:00.565Z,82.40
2022-08-12T23:48:31.194Z,82.50
2022-08-12T23:50:59.461Z,83.10
2022-08-12T23:53:32.426Z,83.10
2022-08-12T23:55:59.605Z,83.20
2022-08-12T23:58:28.255Z,83.10
